sensor_id;sensor_type;location;lat;lon;timestamp;temperature;humidity
20091;DHT22;10205;49.678;6.560;2023-05-07T00:01:48;21.90;51.90
20091;DHT22;10205;49.678;6.560;2023-05-07T00:04:17;21.90;52.10
20091;DHT22;10205;49.678;6.560;2023-05-07T00:06:44;21.80;52.10
20091;DHT22;10205;49.678;6.560;2023-05-07T00:09:11;21.80;52.10
20091;DHT22;10205;49.678;6.560;2023-05-07T00:11:39;21.70;52.10
20091;DHT22;10205;49.678;6.560;2023-05-07T00:14:06;21.70;52.20
20091;DHT22;10205;49.678;6.560;2023-05-07T00:16:33;21.70;52.30
20091;DHT22;10205;49.678;6.560;2023-05-07T00:19:01;21.60;52.20
20091;DHT22;10205;49.678;6.560;2023-05-07T00:21:30;21.60;52.30
20091;DHT22;10205;49.678;6.560;2023-05-07T00:23:57;21.50;52.30
20091;DHT22;10205;49.678;6.560;2023-05-07T00:26:24;21.50;52.30
20091;DHT22;10205;49.678;6.560;2023-05-07T00:28:51;21.50;52.40
20091;DHT22;10205;49.678;6.560;2023-05-07T00:31:18;21.50;52.40
20091;DHT22;10205;49.678;6.560;2023-05-07T00:33:45;21.40;52.50
20091;DHT22;10205;49.678;6.560;2023-05-07T00:36:13;21.40;52.50
20091;DHT22;10205;49.678;6.560;2023-05-07T00:38:40;21.30;52.60
20091;DHT22;10205;49.678;6.560;2023-05-07T00:41:07;21.30;52.60
20091;DHT22;10205;49.678;6.560;2023-05-07T00:43:34;21.30;52.60
20091;DHT22;10205;49.678;6.560;2023-05-07T00:46:05;21.20;52.60
20091;DHT22;10205;49.678;6.560;2023-05-07T00:48:33;21.20;52.70
20091;DHT22;10205;49.678;6.560;2023-05-07T00:51:03;21.20;52.70
20091;DHT22;10205;49.678;6.560;2023-05-07T00:53:31;21.10;52.70
20091;DHT22;10205;49.678;6.560;2023-05-07T00:55:59;21.10;52.80
20091;DHT22;10205;49.678;6.560;2023-05-07T00:58:26;21.10;52.80
20091;DHT22;10205;49.678;6.560;2023-05-07T01:00:53;21.00;52.80
20091;DHT22;10205;49.678;6.560;2023-05-07T01:03:21;21.00;52.80
20091;DHT22;10205;49.678;6.560;2023-05-07T01:05:48;20.90;52.90
20091;DHT22;10205;49.678;6.560;2023-05-07T01:08:17;20.90;52.90
20091;DHT22;10205;49.678;6.560;2023-05-07T01:10:46;20.90;53.00
20091;DHT22;10205;49.678;6.560;2023-05-07T01:13:14;20.80;53.00
20091;DHT22;10205;49.678;6.560;2023-05-07T01:15:42;20.80;53.00
20091;DHT22;10205;49.678;6.560;2023-05-07T01:18:10;20.80;53.00
20091;DHT22;10205;49.678;6.560;2023-05-07T01:20:37;20.70;53.00
20091;DHT22;10205;49.678;6.560;2023-05-07T01:23:09;20.70;53.10
20091;DHT22;10205;49.678;6.560;2023-05-07T01:25:37;20.70;53.30
20091;DHT22;10205;49.678;6.560;2023-05-07T01:28:04;20.60;53.20
20091;DHT22;10205;49.678;6.560;2023-05-07T01:30:33;20.60;53.20
20091;DHT22;10205;49.678;6.560;2023-05-07T01:33:04;20.50;53.30
20091;DHT22;10205;49.678;6.560;2023-05-07T01:35:38;20.50;53.30
20091;DHT22;10205;49.678;6.560;2023-05-07T01:38:15;20.50;53.30
20091;DHT22;10205;49.678;6.560;2023-05-07T01:40:43;20.40;53.30
20091;DHT22;10205;49.678;6.560;2023-05-07T01:43:10;20.40;53.40
20091;DHT22;10205;49.678;6.560;2023-05-07T01:45:38;20.40;53.40
20091;DHT22;10205;49.678;6.560;2023-05-07T01:48:06;20.30;53.50
20091;DHT22;10205;49.678;6.560;2023-05-07T01:50:35;20.30;53.60
20091;DHT22;10205;49.678;6.560;2023-05-07T01:53:03;20.20;53.50
20091;DHT22;10205;49.678;6.560;2023-05-07T01:55:32;20.20;53.50
20091;DHT22;10205;49.678;6.560;2023-05-07T01:57:59;20.20;53.60
20091;DHT22;10205;49.678;6.560;2023-05-07T02:00:26;20.10;53.60
20091;DHT22;10205;49.678;6.560;2023-05-07T02:02:54;20.10;53.70
20091;DHT22;10205;49.678;6.560;2023-05-07T02:05:22;20.10;53.70
20091;DHT22;10205;49.678;6.560;2023-05-07T02:07:49;20.00;53.80
20091;DHT22;10205;49.678;6.560;2023-05-07T02:10:16;20.00;53.80
20091;DHT22;10205;49.678;6.560;2023-05-07T02:12:45;19.90;53.90
20091;DHT22;10205;49.678;6.560;2023-05-07T02:15:12;19.90;53.90
20091;DHT22;10205;49.678;6.560;2023-05-07T02:18:02;19.90;53.90
20091;DHT22;10205;49.678;6.560;2023-05-07T02:20:30;19.80;54.70
20091;DHT22;10205;49.678;6.560;2023-05-07T02:22:57;19.80;53.90
20091;DHT22;10205;49.678;6.560;2023-05-07T02:25:24;19.80;54.00
20091;DHT22;10205;49.678;6.560;2023-05-07T02:27:52;19.70;54.00
20091;DHT22;10205;49.678;6.560;2023-05-07T02:30:19;19.70;54.10
20091;DHT22;10205;49.678;6.560;2023-05-07T02:32:47;19.70;54.10
20091;DHT22;10205;49.678;6.560;2023-05-07T02:35:15;19.60;54.10
20091;DHT22;10205;49.678;6.560;2023-05-07T02:37:42;19.60;54.20
20091;DHT22;10205;49.678;6.560;2023-05-07T02:40:11;19.60;54.20
20091;DHT22;10205;49.678;6.560;2023-05-07T02:42:38;19.50;54.20
20091;DHT22;10205;49.678;6.560;2023-05-07T02:45:08;19.50;54.30
20091;DHT22;10205;49.678;6.560;2023-05-07T02:47:36;19.40;54.30
20091;DHT22;10205;49.678;6.560;2023-05-07T02:50:04;19.40;54.30
20091;DHT22;10205;49.678;6.560;2023-05-07T02:52:32;19.40;54.40
20091;DHT22;10205;49.678;6.560;2023-05-07T02:55:00;19.30;54.40
20091;DHT22;10205;49.678;6.560;2023-05-07T02:57:28;19.30;54.40
20091;DHT22;10205;49.678;6.560;2023-05-07T02:59:55;19.30;54.40
20091;DHT22;10205;49.678;6.560;2023-05-07T03:02:23;19.30;54.50
20091;DHT22;10205;49.678;6.560;2023-05-07T03:04:50;19.20;54.50
20091;DHT22;10205;49.678;6.560;2023-05-07T03:07:18;19.20;54.50
20091;DHT22;10205;49.678;6.560;2023-05-07T03:09:45;19.20;54.50
20091;DHT22;10205;49.678;6.560;2023-05-07T03:12:12;19.10;54.50
20091;DHT22;10205;49.678;6.560;2023-05-07T03:14:39;19.10;54.50
20091;DHT22;10205;49.678;6.560;2023-05-07T03:17:07;19.00;54.50
20091;DHT22;10205;49.678;6.560;2023-05-07T03:19:35;19.00;54.60
20091;DHT22;10205;49.678;6.560;2023-05-07T03:22:02;19.00;54.70
20091;DHT22;10205;49.678;6.560;2023-05-07T03:24:30;19.00;54.60
20091;DHT22;10205;49.678;6.560;2023-05-07T03:26:57;18.90;54.60
20091;DHT22;10205;49.678;6.560;2023-05-07T03:29:24;18.90;54.70
20091;DHT22;10205;49.678;6.560;2023-05-07T03:31:51;18.90;54.80
20091;DHT22;10205;49.678;6.560;2023-05-07T03:34:18;18.80;54.80
20091;DHT22;10205;49.678;6.560;2023-05-07T03:36:49;18.80;54.80
20091;DHT22;10205;49.678;6.560;2023-05-07T03:39:16;18.80;54.90
20091;DHT22;10205;49.678;6.560;2023-05-07T03:41:43;18.80;54.90
20091;DHT22;10205;49.678;6.560;2023-05-07T03:44:10;18.70;54.80
20091;DHT22;10205;49.678;6.560;2023-05-07T03:46:38;18.70;54.80
20091;DHT22;10205;49.678;6.560;2023-05-07T03:49:05;18.60;54.90
20091;DHT22;10205;49.678;6.560;2023-05-07T03:51:32;18.60;55.00
20091;DHT22;10205;49.678;6.560;2023-05-07T03:54:00;18.60;55.00
20091;DHT22;10205;49.678;6.560;2023-05-07T03:56:30;18.60;55.10
20091;DHT22;10205;49.678;6.560;2023-05-07T03:58:57;18.60;55.20
20091;DHT22;10205;49.678;6.560;2023-05-07T04:01:25;18.50;55.10
20091;DHT22;10205;49.678;6.560;2023-05-07T04:03:52;18.50;55.10
20091;DHT22;10205;49.678;6.560;2023-05-07T04:06:19;18.50;55.20
20091;DHT22;10205;49.678;6.560;2023-05-07T04:08:46;18.40;55.10
20091;DHT22;10205;49.678;6.560;2023-05-07T04:11:15;18.40;55.20
20091;DHT22;10205;49.678;6.560;2023-05-07T04:13:42;18.40;55.30
20091;DHT22;10205;49.678;6.560;2023-05-07T04:16:09;18.30;55.20
20091;DHT22;10205;49.678;6.560;2023-05-07T04:18:36;18.30;55.20
20091;DHT22;10205;49.678;6.560;2023-05-07T04:21:04;18.30;55.30
20091;DHT22;10205;49.678;6.560;2023-05-07T04:23:31;18.30;55.30
20091;DHT22;10205;49.678;6.560;2023-05-07T04:25:58;18.20;55.30
20091;DHT22;10205;49.678;6.560;2023-05-07T04:28:27;18.20;55.40
20091;DHT22;10205;49.678;6.560;2023-05-07T04:30:54;18.20;55.50
20091;DHT22;10205;49.678;6.560;2023-05-07T04:33:21;18.10;55.40
20091;DHT22;10205;49.678;6.560;2023-05-07T04:35:48;18.10;55.50
20091;DHT22;10205;49.678;6.560;2023-05-07T04:38:15;18.10;55.60
20091;DHT22;10205;49.678;6.560;2023-05-07T04:40:43;18.10;55.60
20091;DHT22;10205;49.678;6.560;2023-05-07T04:43:12;18.10;55.60
20091;DHT22;10205;49.678;6.560;2023-05-07T04:45:41;18.00;55.70
20091;DHT22;10205;49.678;6.560;2023-05-07T04:48:09;18.00;55.80
20091;DHT22;10205;49.678;6.560;2023-05-07T04:50:36;18.00;55.80
20091;DHT22;10205;49.678;6.560;2023-05-07T04:53:03;17.90;55.80
20091;DHT22;10205;49.678;6.560;2023-05-07T04:55:30;17.90;55.80
20091;DHT22;10205;49.678;6.560;2023-05-07T04:57:57;17.90;55.90
20091;DHT22;10205;49.678;6.560;2023-05-07T05:00:26;17.90;55.90
20091;DHT22;10205;49.678;6.560;2023-05-07T05:02:54;17.90;55.90
20091;DHT22;10205;49.678;6.560;2023-05-07T05:05:21;17.80;56.00
20091;DHT22;10205;49.678;6.560;2023-05-07T05:07:48;17.80;56.00
20091;DHT22;10205;49.678;6.560;2023-05-07T05:10:17;17.80;56.00
20091;DHT22;10205;49.678;6.560;2023-05-07T05:12:44;17.80;56.10
20091;DHT22;10205;49.678;6.560;2023-05-07T05:15:12;17.80;56.10
20091;DHT22;10205;49.678;6.560;2023-05-07T05:17:39;17.70;56.10
20091;DHT22;10205;49.678;6.560;2023-05-07T05:20:08;17.70;56.10
20091;DHT22;10205;49.678;6.560;2023-05-07T05:22:37;17.70;56.20
20091;DHT22;10205;49.678;6.560;2023-05-07T05:25:05;17.70;56.20
20091;DHT22;10205;49.678;6.560;2023-05-07T05:27:32;17.70;56.20
20091;DHT22;10205;49.678;6.560;2023-05-07T05:29:59;17.70;56.30
20091;DHT22;10205;49.678;6.560;2023-05-07T05:32:26;17.70;56.30
20091;DHT22;10205;49.678;6.560;2023-05-07T05:34:53;17.60;56.30
20091;DHT22;10205;49.678;6.560;2023-05-07T05:37:22;17.60;56.40
20091;DHT22;10205;49.678;6.560;2023-05-07T05:39:49;17.60;56.60
20091;DHT22;10205;49.678;6.560;2023-05-07T05:42:16;17.60;56.50
20091;DHT22;10205;49.678;6.560;2023-05-07T05:44:43;17.60;56.50
20091;DHT22;10205;49.678;6.560;2023-05-07T05:47:10;17.60;56.50
20091;DHT22;10205;49.678;6.560;2023-05-07T05:49:37;17.50;56.50
20091;DHT22;10205;49.678;6.560;2023-05-07T05:52:04;17.50;56.60
20091;DHT22;10205;49.678;6.560;2023-05-07T05:54:33;17.50;56.80
20091;DHT22;10205;49.678;6.560;2023-05-07T05:57:00;17.50;56.90
20091;DHT22;10205;49.678;6.560;2023-05-07T05:59:29;17.50;57.50
20091;DHT22;10205;49.678;6.560;2023-05-07T06:01:56;17.50;56.90
20091;DHT22;10205;49.678;6.560;2023-05-07T06:04:23;17.50;57.10
20091;DHT22;10205;49.678;6.560;2023-05-07T06:06:50;17.50;57.00
20091;DHT22;10205;49.678;6.560;2023-05-07T06:09:17;17.40;57.10
20091;DHT22;10205;49.678;6.560;2023-05-07T06:11:46;17.40;57.10
20091;DHT22;10205;49.678;6.560;2023-05-07T06:14:13;17.40;57.20
20091;DHT22;10205;49.678;6.560;2023-05-07T06:16:40;17.40;57.40
20091;DHT22;10205;49.678;6.560;2023-05-07T06:19:10;17.40;57.40
20091;DHT22;10205;49.678;6.560;2023-05-07T06:21:38;17.40;57.40
20091;DHT22;10205;49.678;6.560;2023-05-07T06:24:06;17.40;57.60
20091;DHT22;10205;49.678;6.560;2023-05-07T06:26:33;17.40;57.50
20091;DHT22;10205;49.678;6.560;2023-05-07T06:29:01;17.40;57.50
20091;DHT22;10205;49.678;6.560;2023-05-07T06:31:30;17.40;58.30
20091;DHT22;10205;49.678;6.560;2023-05-07T06:33:58;17.40;57.90
20091;DHT22;10205;49.678;6.560;2023-05-07T06:36:25;17.40;58.10
20091;DHT22;10205;49.678;6.560;2023-05-07T06:38:52;17.40;58.10
20091;DHT22;10205;49.678;6.560;2023-05-07T06:41:20;17.40;58.30
20091;DHT22;10205;49.678;6.560;2023-05-07T06:43:47;17.40;58.20
20091;DHT22;10205;49.678;6.560;2023-05-07T06:46:15;17.40;58.20
20091;DHT22;10205;49.678;6.560;2023-05-07T06:48:42;17.40;58.30
20091;DHT22;10205;49.678;6.560;2023-05-07T06:51:09;17.40;58.20
20091;DHT22;10205;49.678;6.560;2023-05-07T06:53:37;17.50;58.30
20091;DHT22;10205;49.678;6.560;2023-05-07T06:56:04;17.50;58.30
20091;DHT22;10205;49.678;6.560;2023-05-07T06:58:32;17.50;58.50
20091;DHT22;10205;49.678;6.560;2023-05-07T07:00:59;17.50;58.50
20091;DHT22;10205;49.678;6.560;2023-05-07T07:03:29;17.50;58.40
20091;DHT22;10205;49.678;6.560;2023-05-07T07:05:56;17.60;58.50
20091;DHT22;10205;49.678;6.560;2023-05-07T07:08:24;17.60;58.30
20091;DHT22;10205;49.678;6.560;2023-05-07T07:10:51;17.60;58.50
20091;DHT22;10205;49.678;6.560;2023-05-07T07:13:18;17.70;58.40
20091;DHT22;10205;49.678;6.560;2023-05-07T07:15:45;17.70;58.70
20091;DHT22;10205;49.678;6.560;2023-05-07T07:18:12;17.70;58.50
20091;DHT22;10205;49.678;6.560;2023-05-07T07:20:40;17.70;58.70
20091;DHT22;10205;49.678;6.560;2023-05-07T07:23:09;17.70;58.80
20091;DHT22;10205;49.678;6.560;2023-05-07T07:25:37;17.80;58.60
20091;DHT22;10205;49.678;6.560;2023-05-07T07:28:04;17.80;58.70
20091;DHT22;10205;49.678;6.560;2023-05-07T07:30:31;17.90;59.10
20091;DHT22;10205;49.678;6.560;2023-05-07T07:32:58;17.90;59.40
20091;DHT22;10205;49.678;6.560;2023-05-07T07:35:28;17.90;59.40
20091;DHT22;10205;49.678;6.560;2023-05-07T07:37:56;17.90;59.60
20091;DHT22;10205;49.678;6.560;2023-05-07T07:40:24;18.00;60.00
20091;DHT22;10205;49.678;6.560;2023-05-07T07:42:51;18.00;59.60
20091;DHT22;10205;49.678;6.560;2023-05-07T07:45:18;18.10;59.80
20091;DHT22;10205;49.678;6.560;2023-05-07T07:47:46;18.00;60.60
20091;DHT22;10205;49.678;6.560;2023-05-07T07:50:13;18.10;60.70
20091;DHT22;10205;49.678;6.560;2023-05-07T07:52:40;18.10;60.80
20091;DHT22;10205;49.678;6.560;2023-05-07T07:55:09;18.20;60.30
20091;DHT22;10205;49.678;6.560;2023-05-07T07:57:37;18.20;60.10
20091;DHT22;10205;49.678;6.560;2023-05-07T08:00:05;18.30;60.70
20091;DHT22;10205;49.678;6.560;2023-05-07T08:02:34;18.30;61.30
20091;DHT22;10205;49.678;6.560;2023-05-07T08:05:02;18.30;60.30
20091;DHT22;10205;49.678;6.560;2023-05-07T08:07:29;18.40;60.30
20091;DHT22;10205;49.678;6.560;2023-05-07T08:09:57;18.40;60.40
20091;DHT22;10205;49.678;6.560;2023-05-07T08:12:25;18.50;60.30
20091;DHT22;10205;49.678;6.560;2023-05-07T08:14:52;18.50;60.00
20091;DHT22;10205;49.678;6.560;2023-05-07T08:17:20;18.60;60.00
20091;DHT22;10205;49.678;6.560;2023-05-07T08:19:47;18.60;60.90
20091;DHT22;10205;49.678;6.560;2023-05-07T08:22:14;18.70;60.40
20091;DHT22;10205;49.678;6.560;2023-05-07T08:24:43;18.70;60.10
20091;DHT22;10205;49.678;6.560;2023-05-07T08:27:10;18.80;60.50
20091;DHT22;10205;49.678;6.560;2023-05-07T08:29:38;18.80;60.90
20091;DHT22;10205;49.678;6.560;2023-05-07T08:32:06;18.90;61.40
20091;DHT22;10205;49.678;6.560;2023-05-07T08:34:33;18.90;60.60
20091;DHT22;10205;49.678;6.560;2023-05-07T08:37:00;19.00;60.80
20091;DHT22;10205;49.678;6.560;2023-05-07T08:39:27;19.00;60.30
20091;DHT22;10205;49.678;6.560;2023-05-07T08:41:55;19.10;59.90
20091;DHT22;10205;49.678;6.560;2023-05-07T08:44:26;19.10;60.10
20091;DHT22;10205;49.678;6.560;2023-05-07T08:46:56;19.20;60.30
20091;DHT22;10205;49.678;6.560;2023-05-07T08:49:23;19.30;60.80
20091;DHT22;10205;49.678;6.560;2023-05-07T08:51:52;19.30;60.20
20091;DHT22;10205;49.678;6.560;2023-05-07T08:54:20;19.40;60.10
20091;DHT22;10205;49.678;6.560;2023-05-07T08:56:48;19.40;59.90
20091;DHT22;10205;49.678;6.560;2023-05-07T08:59:15;19.50;59.90
20091;DHT22;10205;49.678;6.560;2023-05-07T09:01:42;19.50;59.70
20091;DHT22;10205;49.678;6.560;2023-05-07T09:04:11;19.60;59.70
20091;DHT22;10205;49.678;6.560;2023-05-07T09:06:39;19.60;59.70
20091;DHT22;10205;49.678;6.560;2023-05-07T09:09:07;19.70;59.60
20091;DHT22;10205;49.678;6.560;2023-05-07T09:11:34;19.70;59.50
20091;DHT22;10205;49.678;6.560;2023-05-07T09:14:01;19.80;59.70
20091;DHT22;10205;49.678;6.560;2023-05-07T09:16:31;19.90;59.50
20091;DHT22;10205;49.678;6.560;2023-05-07T09:18:59;19.90;60.20
20091;DHT22;10205;49.678;6.560;2023-05-07T09:21:28;20.00;59.90
20091;DHT22;10205;49.678;6.560;2023-05-07T09:23:55;20.00;59.20
20091;DHT22;10205;49.678;6.560;2023-05-07T09:26:23;20.10;59.50
20091;DHT22;10205;49.678;6.560;2023-05-07T09:28:51;20.10;59.20
20091;DHT22;10205;49.678;6.560;2023-05-07T09:31:18;20.20;59.00
20091;DHT22;10205;49.678;6.560;2023-05-07T09:33:48;20.30;59.20
20091;DHT22;10205;49.678;6.560;2023-05-07T09:36:15;20.30;59.00
20091;DHT22;10205;49.678;6.560;2023-05-07T09:38:45;20.40;59.10
20091;DHT22;10205;49.678;6.560;2023-05-07T09:41:13;20.40;59.10
20091;DHT22;10205;49.678;6.560;2023-05-07T09:43:40;20.50;59.10
20091;DHT22;10205;49.678;6.560;2023-05-07T09:46:10;20.60;58.90
20091;DHT22;10205;49.678;6.560;2023-05-07T09:48:40;20.60;58.80
20091;DHT22;10205;49.678;6.560;2023-05-07T09:51:15;20.70;58.80
20091;DHT22;10205;49.678;6.560;2023-05-07T09:53:50;20.70;58.80
20091;DHT22;10205;49.678;6.560;2023-05-07T09:56:19;20.80;58.50
20091;DHT22;10205;49.678;6.560;2023-05-07T09:58:48;20.90;58.30
20091;DHT22;10205;49.678;6.560;2023-05-07T10:01:18;20.90;58.10
20091;DHT22;10205;49.678;6.560;2023-05-07T10:03:50;21.00;58.10
20091;DHT22;10205;49.678;6.560;2023-05-07T10:06:18;21.10;58.50
20091;DHT22;10205;49.678;6.560;2023-05-07T10:08:46;21.20;58.00
20091;DHT22;10205;49.678;6.560;2023-05-07T10:11:17;21.20;57.90
20091;DHT22;10205;49.678;6.560;2023-05-07T10:13:46;21.30;57.80
20091;DHT22;10205;49.678;6.560;2023-05-07T10:16:14;21.30;57.60
20091;DHT22;10205;49.678;6.560;2023-05-07T10:18:43;21.40;57.50
20091;DHT22;10205;49.678;6.560;2023-05-07T10:21:14;21.50;58.10
20091;DHT22;10205;49.678;6.560;2023-05-07T10:23:50;21.60;58.10
20091;DHT22;10205;49.678;6.560;2023-05-07T10:26:22;21.60;57.50
20091;DHT22;10205;49.678;6.560;2023-05-07T10:28:54;21.70;57.70
20091;DHT22;10205;49.678;6.560;2023-05-07T10:31:42;21.80;57.80
20091;DHT22;10205;49.678;6.560;2023-05-07T10:34:19;21.80;57.30
20091;DHT22;10205;49.678;6.560;2023-05-07T10:36:50;21.90;57.30
20091;DHT22;10205;49.678;6.560;2023-05-07T10:39:20;21.90;57.00
20091;DHT22;10205;49.678;6.560;2023-05-07T10:41:49;22.00;57.20
20091;DHT22;10205;49.678;6.560;2023-05-07T10:44:26;22.10;56.90
20091;DHT22;10205;49.678;6.560;2023-05-07T10:47:05;22.20;56.80
20091;DHT22;10205;49.678;6.560;2023-05-07T10:49:35;22.20;57.00
20091;DHT22;10205;49.678;6.560;2023-05-07T10:52:12;22.30;56.70
20091;DHT22;10205;49.678;6.560;2023-05-07T10:54:43;22.30;56.80
20091;DHT22;10205;49.678;6.560;2023-05-07T10:57:35;22.40;56.80
20091;DHT22;10205;49.678;6.560;2023-05-07T11:00:42;22.40;56.80
20091;DHT22;10205;49.678;6.560;2023-05-07T11:03:10;22.50;56.60
20091;DHT22;10205;49.678;6.560;2023-05-07T11:05:37;22.60;56.40
20091;DHT22;10205;49.678;6.560;2023-05-07T11:08:05;22.60;56.40
20091;DHT22;10205;49.678;6.560;2023-05-07T11:10:48;22.70;56.30
20091;DHT22;10205;49.678;6.560;2023-05-07T11:13:17;22.70;56.00
20091;DHT22;10205;49.678;6.560;2023-05-07T11:15:47;22.70;56.00
20091;DHT22;10205;49.678;6.560;2023-05-07T11:18:16;22.80;56.00
20091;DHT22;10205;49.678;6.560;2023-05-07T11:20:49;22.80;56.00
20091;DHT22;10205;49.678;6.560;2023-05-07T11:26:52;22.90;55.60
20091;DHT22;10205;49.678;6.560;2023-05-07T11:29:21;23.00;55.40
20091;DHT22;10205;49.678;6.560;2023-05-07T11:31:50;23.00;55.30
20091;DHT22;10205;49.678;6.560;2023-05-07T11:34:21;23.10;55.40
20091;DHT22;10205;49.678;6.560;2023-05-07T11:36:49;23.20;55.20
20091;DHT22;10205;49.678;6.560;2023-05-07T11:39:27;23.20;55.20
20091;DHT22;10205;49.678;6.560;2023-05-07T11:41:57;23.20;55.10
20091;DHT22;10205;49.678;6.560;2023-05-07T11:44:24;23.20;55.20
20091;DHT22;10205;49.678;6.560;2023-05-07T11:46:56;23.30;55.30
20091;DHT22;10205;49.678;6.560;2023-05-07T11:49:25;23.30;55.10
20091;DHT22;10205;49.678;6.560;2023-05-07T11:51:55;23.40;55.30
20091;DHT22;10205;49.678;6.560;2023-05-07T11:54:23;23.50;54.80
20091;DHT22;10205;49.678;6.560;2023-05-07T11:56:50;23.50;54.90
20091;DHT22;10205;49.678;6.560;2023-05-07T11:59:18;23.50;55.00
20091;DHT22;10205;49.678;6.560;2023-05-07T12:01:48;23.60;55.00
20091;DHT22;10205;49.678;6.560;2023-05-07T12:04:20;23.60;54.80
20091;DHT22;10205;49.678;6.560;2023-05-07T12:06:47;23.60;54.50
20091;DHT22;10205;49.678;6.560;2023-05-07T12:09:16;23.70;55.40
20091;DHT22;10205;49.678;6.560;2023-05-07T12:11:46;23.80;54.60
20091;DHT22;10205;49.678;6.560;2023-05-07T12:14:13;23.80;54.20
20091;DHT22;10205;49.678;6.560;2023-05-07T12:16:41;23.90;54.30
20091;DHT22;10205;49.678;6.560;2023-05-07T12:19:09;23.90;54.30
20091;DHT22;10205;49.678;6.560;2023-05-07T12:21:40;24.00;54.20
20091;DHT22;10205;49.678;6.560;2023-05-07T12:24:08;24.00;54.00
20091;DHT22;10205;49.678;6.560;2023-05-07T12:26:38;24.00;54.00
20091;DHT22;10205;49.678;6.560;2023-05-07T12:29:06;24.10;53.90
20091;DHT22;10205;49.678;6.560;2023-05-07T12:31:33;24.20;53.80
20091;DHT22;10205;49.678;6.560;2023-05-07T12:34:01;24.20;53.80
20091;DHT22;10205;49.678;6.560;2023-05-07T12:36:36;24.20;53.60
20091;DHT22;10205;49.678;6.560;2023-05-07T12:39:06;24.30;53.30
20091;DHT22;10205;49.678;6.560;2023-05-07T12:41:36;24.30;53.20
20091;DHT22;10205;49.678;6.560;2023-05-07T12:44:22;24.40;53.30
20091;DHT22;10205;49.678;6.560;2023-05-07T12:46:49;24.40;53.30
20091;DHT22;10205;49.678;6.560;2023-05-07T12:49:16;24.50;53.10
20091;DHT22;10205;49.678;6.560;2023-05-07T12:51:44;24.50;52.50
20091;DHT22;10205;49.678;6.560;2023-05-07T12:54:27;24.60;52.80
20091;DHT22;10205;49.678;6.560;2023-05-07T12:57:00;24.60;52.60
20091;DHT22;10205;49.678;6.560;2023-05-07T12:59:33;24.60;53.10
20091;DHT22;10205;49.678;6.560;2023-05-07T13:02:01;24.70;52.30
20091;DHT22;10205;49.678;6.560;2023-05-07T13:04:28;24.70;52.60
20091;DHT22;10205;49.678;6.560;2023-05-07T13:06:55;24.80;52.60
20091;DHT22;10205;49.678;6.560;2023-05-07T13:09:23;24.80;52.50
20091;DHT22;10205;49.678;6.560;2023-05-07T13:11:50;24.80;52.20
20091;DHT22;10205;49.678;6.560;2023-05-07T13:14:24;24.90;52.40
20091;DHT22;10205;49.678;6.560;2023-05-07T13:16:51;24.90;52.30
20091;DHT22;10205;49.678;6.560;2023-05-07T13:19:18;25.00;52.20
20091;DHT22;10205;49.678;6.560;2023-05-07T13:21:45;25.00;52.30
20091;DHT22;10205;49.678;6.560;2023-05-07T13:24:12;25.00;52.20
20091;DHT22;10205;49.678;6.560;2023-05-07T13:26:43;25.10;52.10
20091;DHT22;10205;49.678;6.560;2023-05-07T13:29:13;25.10;52.00
20091;DHT22;10205;49.678;6.560;2023-05-07T13:31:40;25.10;51.70
20091;DHT22;10205;49.678;6.560;2023-05-07T13:34:09;25.10;51.80
20091;DHT22;10205;49.678;6.560;2023-05-07T13:36:37;25.20;51.90
20091;DHT22;10205;49.678;6.560;2023-05-07T13:39:05;25.20;52.10
20091;DHT22;10205;49.678;6.560;2023-05-07T13:41:32;25.20;51.90
20091;DHT22;10205;49.678;6.560;2023-05-07T13:44:01;25.30;52.10
20091;DHT22;10205;49.678;6.560;2023-05-07T13:46:28;25.30;51.90
20091;DHT22;10205;49.678;6.560;2023-05-07T13:48:55;25.30;51.80
20091;DHT22;10205;49.678;6.560;2023-05-07T13:51:22;25.40;51.80
20091;DHT22;10205;49.678;6.560;2023-05-07T13:53:50;25.40;51.90
20091;DHT22;10205;49.678;6.560;2023-05-07T13:56:18;25.40;51.80
20091;DHT22;10205;49.678;6.560;2023-05-07T13:58:45;25.40;51.70
20091;DHT22;10205;49.678;6.560;2023-05-07T14:01:14;25.40;51.60
20091;DHT22;10205;49.678;6.560;2023-05-07T14:03:41;25.50;51.20
20091;DHT22;10205;49.678;6.560;2023-05-07T14:06:08;25.50;51.10
20091;DHT22;10205;49.678;6.560;2023-05-07T14:08:35;25.50;50.80
20091;DHT22;10205;49.678;6.560;2023-05-07T14:11:02;25.60;51.00
20091;DHT22;10205;49.678;6.560;2023-05-07T14:13:29;25.60;51.00
20091;DHT22;10205;49.678;6.560;2023-05-07T14:15:57;25.60;51.10
20091;DHT22;10205;49.678;6.560;2023-05-07T14:18:26;25.60;51.20
20091;DHT22;10205;49.678;6.560;2023-05-07T14:20:54;25.60;51.00
20091;DHT22;10205;49.678;6.560;2023-05-07T14:23:21;25.60;50.90
20091;DHT22;10205;49.678;6.560;2023-05-07T14:25:52;25.60;50.90
20091;DHT22;10205;49.678;6.560;2023-05-07T14:28:19;25.60;50.70
20091;DHT22;10205;49.678;6.560;2023-05-07T14:30:47;25.70;50.80
20091;DHT22;10205;49.678;6.560;2023-05-07T14:33:14;25.70;51.00
20091;DHT22;10205;49.678;6.560;2023-05-07T14:35:42;25.70;50.80
20091;DHT22;10205;49.678;6.560;2023-05-07T14:38:14;25.70;50.90
20091;DHT22;10205;49.678;6.560;2023-05-07T14:40:41;25.80;51.00
20091;DHT22;10205;49.678;6.560;2023-05-07T14:43:09;25.80;50.60
20091;DHT22;10205;49.678;6.560;2023-05-07T14:45:36;25.80;50.60
20091;DHT22;10205;49.678;6.560;2023-05-07T14:48:04;25.90;50.70
20091;DHT22;10205;49.678;6.560;2023-05-07T14:50:31;25.90;50.40
20091;DHT22;10205;49.678;6.560;2023-05-07T14:52:59;25.90;50.00
20091;DHT22;10205;49.678;6.560;2023-05-07T14:55:26;25.90;50.00
20091;DHT22;10205;49.678;6.560;2023-05-07T14:57:55;26.00;50.30
20091;DHT22;10205;49.678;6.560;2023-05-07T15:00:22;26.00;50.30
20091;DHT22;10205;49.678;6.560;2023-05-07T15:02:49;26.00;50.30
20091;DHT22;10205;49.678;6.560;2023-05-07T15:05:16;26.00;50.40
20091;DHT22;10205;49.678;6.560;2023-05-07T15:07:44;26.00;50.40
20091;DHT22;10205;49.678;6.560;2023-05-07T15:10:13;26.00;50.30
20091;DHT22;10205;49.678;6.560;2023-05-07T15:12:40;26.00;50.40
20091;DHT22;10205;49.678;6.560;2023-05-07T15:15:08;26.10;50.50
20091;DHT22;10205;49.678;6.560;2023-05-07T15:17:36;26.10;50.50
20091;DHT22;10205;49.678;6.560;2023-05-07T15:20:04;26.10;50.40
20091;DHT22;10205;49.678;6.560;2023-05-07T15:22:32;26.10;50.50
20091;DHT22;10205;49.678;6.560;2023-05-07T15:25:01;26.20;50.60
20091;DHT22;10205;49.678;6.560;2023-05-07T15:27:31;26.20;50.60
20091;DHT22;10205;49.678;6.560;2023-05-07T15:29:58;26.20;50.70
20091;DHT22;10205;49.678;6.560;2023-05-07T15:32:25;26.20;50.50
20091;DHT22;10205;49.678;6.560;2023-05-07T15:34:52;26.30;50.50
20091;DHT22;10205;49.678;6.560;2023-05-07T15:37:19;26.30;50.40
20091;DHT22;10205;49.678;6.560;2023-05-07T15:39:46;26.30;50.30
20091;DHT22;10205;49.678;6.560;2023-05-07T15:42:13;26.30;50.00